createdAt,value
2023-04-18T00:01:55.280Z,4.29
2023-04-18T00:04:22.210Z,4.39
2023-04-18T00:06:50.072Z,4.38
2023-04-18T00:09:17.012Z,4.44
2023-04-18T00:11:43.897Z,4.42
2023-04-18T00:14:10.847Z,4.39
2023-04-18T00:16:38.931Z,4.43
2023-04-18T00:19:06.290Z,4.39
2023-04-18T00:21:33.260Z,4.42
2023-04-18T00:24:00.081Z,4.45
2023-04-18T00:26:27.793Z,4.44
2023-04-18T00:28:54.610Z,4.47
2023-04-18T00:31:21.526Z,4.39
2023-04-18T00:33:48.406Z,4.35
2023-04-18T00:36:15.696Z,4.32
2023-04-18T00:38:42.495Z,4.25
2023-04-18T00:41:09.358Z,4.27
2023-04-18T00:43:37.378Z,4.23
2023-04-18T00:46:04.276Z,4.28
2023-04-18T00:48:31.075Z,4.29
2023-04-18T00:50:58.247Z,4.31
2023-04-18T00:53:25.247Z,4.26
2023-04-18T00:55:53.182Z,4.27
2023-04-18T00:58:20.391Z,4.30
2023-04-18T01:00:47.636Z,4.27
2023-04-18T01:03:14.871Z,4.37
2023-04-18T01:05:41.822Z,4.37
2023-04-18T01:08:08.704Z,4.40
2023-04-18T01:10:36.477Z,4.38
2023-04-18T01:13:19.599Z,4.44
2023-04-18T01:15:48.592Z,4.40
2023-04-18T01:18:19.380Z,4.41
2023-04-18T01:20:48.679Z,4.30
2023-04-18T01:23:17.140Z,4.28
2023-04-18T01:25:45.119Z,4.35
2023-04-18T01:28:14.410Z,4.30
2023-04-18T01:30:41.440Z,4.25
2023-04-18T01:33:08.330Z,4.24
2023-04-18T01:35:35.214Z,4.24
2023-04-18T01:38:02.125Z,4.25
2023-04-18T01:40:30.274Z,4.27
2023-04-18T01:42:57.260Z,4.28
2023-04-18T01:45:24.223Z,4.30
2023-04-18T01:47:51.121Z,4.43
2023-04-18T01:50:18.012Z,4.36
2023-04-18T01:52:44.842Z,4.36
2023-04-18T01:55:11.788Z,4.33
2023-04-18T01:57:38.601Z,4.28
2023-04-18T02:00:06.553Z,4.33
2023-04-18T02:02:42.126Z,4.33
2023-04-18T02:05:09.608Z,4.38
2023-04-18T02:07:40.144Z,4.37
2023-04-18T02:10:08.077Z,4.49
2023-04-18T02:12:34.843Z,4.49
2023-04-18T02:15:01.661Z,4.51
2023-04-18T02:17:29.010Z,4.49
2023-04-18T02:19:56.064Z,4.61
2023-04-18T02:22:22.846Z,4.55
2023-04-18T02:24:49.680Z,4.45
2023-04-18T02:27:16.508Z,4.34
2023-04-18T02:29:43.291Z,4.26
2023-04-18T02:32:10.093Z,4.23
2023-04-18T02:34:37.265Z,4.23
2023-04-18T02:37:04.810Z,4.28
2023-04-18T02:39:32.588Z,4.33
2023-04-18T02:41:59.492Z,4.27
2023-04-18T02:44:26.359Z,4.30
2023-04-18T02:46:53.173Z,4.31
2023-04-18T02:49:20.255Z,4.27
2023-04-18T02:51:47.408Z,4.22
2023-04-18T02:54:15.429Z,4.07
2023-04-18T02:56:54.472Z,4.12
2023-04-18T02:59:44.467Z,4.07
2023-04-18T03:02:30.506Z,4.03
2023-04-18T03:05:03.459Z,4.01
2023-04-18T03:07:31.165Z,4.01
2023-04-18T03:10:00.157Z,4.02
2023-04-18T03:12:31.590Z,4.01
2023-04-18T03:14:58.473Z,4.08
2023-04-18T03:17:25.481Z,4.10
2023-04-18T03:19:53.009Z,4.14
2023-04-18T03:22:20.605Z,4.16
2023-04-18T03:24:53.751Z,4.17
2023-04-18T03:27:22.674Z,4.08
2023-04-18T03:29:49.467Z,4.17
2023-04-18T03:32:17.527Z,4.16
2023-04-18T03:34:44.517Z,4.24
2023-04-18T03:37:11.849Z,4.08
2023-04-18T03:39:44.368Z,4.09
2023-04-18T03:42:11.292Z,4.11
2023-04-18T03:44:39.197Z,4.12
2023-04-18T03:47:06.597Z,4.13
2023-04-18T03:49:35.765Z,4.17
2023-04-18T03:52:03.665Z,4.12
2023-04-18T03:54:30.459Z,4.10
2023-04-18T03:56:59.536Z,4.05
2023-04-18T03:59:27.878Z,4.05
2023-04-18T04:01:56.170Z,4.14
2023-04-18T04:04:26.483Z,4.01
2023-04-18T04:06:53.420Z,4.02
2023-04-18T04:09:20.297Z,3.98
2023-04-18T04:11:47.199Z,4.06
2023-04-18T04:14:16.274Z,3.93
2023-04-18T04:16:46.126Z,3.93
2023-04-18T04:19:15.903Z,3.94
2023-04-18T04:22:05.527Z,3.87
2023-04-18T04:24:33.889Z,3.88
2023-04-18T04:27:01.532Z,3.79
2023-04-18T04:29:29.330Z,3.79
2023-04-18T04:31:59.482Z,3.78
2023-04-18T04:34:36.891Z,3.73
2023-04-18T04:37:05.965Z,3.73
2023-04-18T04:39:39.139Z,3.65
2023-04-18T04:42:19.997Z,3.73
2023-04-18T04:44:55.172Z,3.77
2023-04-18T04:47:22.566Z,3.68
2023-04-18T04:49:49.437Z,3.86
2023-04-18T04:52:16.282Z,4.04
2023-04-18T04:54:45.154Z,4.12
2023-04-18T04:57:14.171Z,4.15
2023-04-18T04:59:41.252Z,4.24
2023-04-18T05:02:08.155Z,4.27
2023-04-18T05:04:36.372Z,4.27
2023-04-18T05:07:03.789Z,4.44
2023-04-18T05:09:30.616Z,4.39
2023-04-18T05:11:57.411Z,4.34
2023-04-18T05:14:27.902Z,4.22
2023-04-18T05:16:55.863Z,4.15
2023-04-18T05:19:23.184Z,4.35
2023-04-18T05:21:49.948Z,4.38
2023-04-18T05:24:16.950Z,4.44
2023-04-18T05:26:43.971Z,4.34
2023-04-18T05:29:10.819Z,4.32
2023-04-18T05:31:37.591Z,4.26
2023-04-18T05:34:04.413Z,4.30
2023-04-18T05:36:32.005Z,4.42
2023-04-18T05:38:58.822Z,4.51
2023-04-18T05:41:25.715Z,4.55
2023-04-18T05:44:04.297Z,4.60
2023-04-18T05:46:32.976Z,4.53
2023-04-18T05:48:59.862Z,4.58
2023-04-18T05:51:28.757Z,4.57
2023-04-18T05:53:55.668Z,4.59
2023-04-18T05:56:22.497Z,4.63
2023-04-18T05:58:51.495Z,4.65
2023-04-18T06:01:21.654Z,4.76
2023-04-18T06:03:48.694Z,4.68
2023-04-18T06:06:16.067Z,4.78
2023-04-18T06:08:42.889Z,4.86
2023-04-18T06:11:09.719Z,4.89
2023-04-18T06:13:37.520Z,4.84
2023-04-18T06:16:04.504Z,4.93
2023-04-18T06:18:31.793Z,4.98
2023-04-18T06:20:58.738Z,4.95
2023-04-18T06:23:25.544Z,4.96
2023-04-18T06:25:52.375Z,4.91
2023-04-18T06:28:19.230Z,4.99
2023-04-18T06:30:46.053Z,5.02
2023-04-18T06:33:12.829Z,5.11
2023-04-18T06:35:39.734Z,5.13
2023-04-18T06:38:06.559Z,5.26
2023-04-18T06:40:33.358Z,5.51
2023-04-18T06:43:00.140Z,5.35
2023-04-18T06:45:28.267Z,5.31
2023-04-18T06:47:55.138Z,5.30
2023-04-18T06:50:21.994Z,5.22
2023-04-18T06:52:48.763Z,5.12
2023-04-18T06:55:16.959Z,5.24
2023-04-18T06:57:46.389Z,5.38
2023-04-18T07:00:13.732Z,5.48
2023-04-18T07:02:41.330Z,5.58
2023-04-18T07:05:08.637Z,5.62
2023-04-18T07:07:35.564Z,5.57
2023-04-18T07:10:02.490Z,5.63
2023-04-18T07:12:29.303Z,5.66
2023-04-18T07:14:56.056Z,5.77
2023-04-18T07:17:22.938Z,5.91
2023-04-18T07:19:49.813Z,6.05
2023-04-18T07:22:16.617Z,6.14
2023-04-18T07:24:44.285Z,6.23
2023-04-18T07:27:11.040Z,6.24
2023-04-18T07:29:37.816Z,6.37
2023-04-18T07:32:06.187Z,6.41
2023-04-18T07:34:36.354Z,6.46
2023-04-18T07:37:03.585Z,6.50
2023-04-18T07:39:32.072Z,6.63
2023-04-18T07:41:59.105Z,6.74
2023-04-18T07:44:26.038Z,6.87
2023-04-18T07:46:53.654Z,6.88
2023-04-18T07:49:20.452Z,6.90
2023-04-18T07:51:47.301Z,7.00
2023-04-18T07:54:14.060Z,6.96
2023-04-18T07:56:41.257Z,6.87
2023-04-18T07:59:08.229Z,6.95
2023-04-18T08:01:35.091Z,6.98
2023-04-18T08:04:02.330Z,6.93
2023-04-18T08:06:29.459Z,7.06
2023-04-18T08:08:56.572Z,7.00
2023-04-18T08:11:23.418Z,6.93
2023-04-18T08:13:50.467Z,6.98
2023-04-18T08:16:17.583Z,7.00
2023-04-18T08:18:44.566Z,7.09
2023-04-18T08:21:11.496Z,7.14
2023-04-18T08:23:38.498Z,7.05
2023-04-18T08:26:05.537Z,7.04
2023-04-18T08:28:32.571Z,7.13
2023-04-18T08:30:59.364Z,7.13
2023-04-18T08:33:26.660Z,7.06
2023-04-18T08:35:53.464Z,7.10
2023-04-18T08:38:20.359Z,7.12
2023-04-18T08:40:47.488Z,7.05
2023-04-18T08:43:15.424Z,7.04
2023-04-18T08:45:43.335Z,7.15
2023-04-18T08:48:14.483Z,7.21
2023-04-18T08:50:42.115Z,7.26
2023-04-18T08:53:09.672Z,7.35
2023-04-18T08:55:37.323Z,7.41
2023-04-18T08:58:07.225Z,7.49
2023-04-18T09:00:34.330Z,7.54
2023-04-18T09:03:03.138Z,7.63
2023-04-18T09:05:30.189Z,7.73
2023-04-18T09:07:57.077Z,7.79
2023-04-18T09:10:33.177Z,7.99
2023-04-18T09:13:03.564Z,7.98
2023-04-18T09:15:31.054Z,8.01
2023-04-18T09:18:00.451Z,8.08
2023-04-18T09:20:30.964Z,8.19
2023-04-18T09:23:00.932Z,8.29
2023-04-18T09:25:29.573Z,8.41
2023-04-18T09:28:01.256Z,8.37
2023-04-18T09:30:39.607Z,8.47
2023-04-18T09:33:10.242Z,8.50
2023-04-18T09:35:38.234Z,8.39
2023-04-18T09:38:06.116Z,8.40
2023-04-18T09:40:33.482Z,8.45
2023-04-18T09:43:00.766Z,8.52
2023-04-18T09:45:27.636Z,8.66
2023-04-18T09:47:55.947Z,8.70
2023-04-18T09:50:22.773Z,8.58
2023-04-18T09:52:49.602Z,8.72
2023-04-18T09:55:19.762Z,8.81
2023-04-18T09:57:48.537Z,8.87
2023-04-18T10:00:21.768Z,8.90
2023-04-18T10:02:58.828Z,8.88
2023-04-18T10:05:28.237Z,8.96
2023-04-18T10:07:55.434Z,9.07
2023-04-18T10:10:22.659Z,9.17
2023-04-18T10:12:51.056Z,9.28
2023-04-18T10:15:18.433Z,9.37
2023-04-18T10:18:03.656Z,9.55
2023-04-18T10:20:33.347Z,9.46
2023-04-18T10:23:00.254Z,9.68
2023-04-18T10:25:39.298Z,9.41
2023-04-18T10:28:09.655Z,9.42
2023-04-18T10:30:42.666Z,9.44
2023-04-18T10:36:01.287Z,9.58
2023-04-18T10:38:28.182Z,9.65
2023-04-18T10:41:14.085Z,9.73
2023-04-18T10:44:12.264Z,9.70
2023-04-18T10:46:48.512Z,9.80
2023-04-18T10:49:34.736Z,9.71
2023-04-18T10:52:03.062Z,9.72
2023-04-18T10:54:36.029Z,9.81
2023-04-18T10:57:04.351Z,9.87
2023-04-18T10:59:32.987Z,10.00
2023-04-18T11:02:05.367Z,10.00
2023-04-18T11:04:32.277Z,10.14
2023-04-18T11:06:59.207Z,10.23
2023-04-18T11:09:26.148Z,10.30
2023-04-18T11:12:06.700Z,10.24
2023-04-18T11:14:41.461Z,10.30
2023-04-18T11:17:22.469Z,10.47
2023-04-18T11:19:50.140Z,10.46
2023-04-18T11:22:17.804Z,10.56
2023-04-18T11:24:45.244Z,10.68
2023-04-18T11:27:12.898Z,10.61
2023-04-18T11:29:39.775Z,10.60
2023-04-18T11:32:08.081Z,10.61
2023-04-18T11:34:36.060Z,10.75
2023-04-18T11:37:07.038Z,10.78
2023-04-18T11:39:35.745Z,10.99
2023-04-18T11:42:02.509Z,10.96
2023-04-18T11:44:29.253Z,10.99
2023-04-18T11:46:56.074Z,11.04
2023-04-18T11:49:26.305Z,11.11
2023-04-18T11:51:53.825Z,11.04
2023-04-18T11:54:45.751Z,11.09
2023-04-18T11:57:23.243Z,11.08
2023-04-18T11:59:50.908Z,10.97
2023-04-18T12:02:17.992Z,10.96
2023-04-18T12:04:56.783Z,10.99
2023-04-18T12:07:48.332Z,10.85
2023-04-18T12:10:21.124Z,10.94
2023-04-18T12:12:51.772Z,10.93
2023-04-18T12:15:19.541Z,10.91
2023-04-18T12:17:48.728Z,11.00
2023-04-18T12:20:16.314Z,11.07
2023-04-18T12:22:46.392Z,11.13
2023-04-18T12:25:27.141Z,11.18
2023-04-18T12:27:58.257Z,11.24
2023-04-18T12:30:44.232Z,11.39
2023-04-18T12:33:11.317Z,11.25
2023-04-18T12:35:38.118Z,11.19
2023-04-18T12:38:05.144Z,11.20
2023-04-18T12:40:32.011Z,11.20
2023-04-18T12:42:59.282Z,11.27
2023-04-18T12:45:26.884Z,11.42
2023-04-18T12:47:53.959Z,11.41
2023-04-18T12:50:22.881Z,11.45
2023-04-18T12:52:52.251Z,11.62
2023-04-18T12:55:19.425Z,11.56
2023-04-18T12:57:46.490Z,11.62
2023-04-18T13:00:14.284Z,11.61
2023-04-18T13:02:43.871Z,11.64
2023-04-18T13:05:12.799Z,11.60
2023-04-18T13:07:40.923Z,11.58
2023-04-18T13:10:09.458Z,11.69
2023-04-18T13:12:36.733Z,11.67
2023-04-18T13:15:04.539Z,11.69
2023-04-18T13:17:31.550Z,11.73
2023-04-18T13:19:58.478Z,11.68
2023-04-18T13:22:25.736Z,11.69
2023-04-18T13:24:53.750Z,11.74
2023-04-18T13:27:20.582Z,11.76
2023-04-18T13:29:47.475Z,11.85
2023-04-18T13:32:14.334Z,12.07
2023-04-18T13:34:45.992Z,12.02
2023-04-18T13:37:13.723Z,12.02
2023-04-18T13:39:40.728Z,12.11
2023-04-18T13:42:08.009Z,12.15
2023-04-18T13:44:36.207Z,12.20
2023-04-18T13:47:05.719Z,12.21
2023-04-18T13:49:33.946Z,12.22
2023-04-18T13:52:01.141Z,12.23
2023-04-18T13:54:29.110Z,12.23
2023-04-18T13:56:57.882Z,12.20
2023-04-18T13:59:28.393Z,12.28
2023-04-18T14:01:55.757Z,12.24
2023-04-18T14:04:23.399Z,12.24
2023-04-18T14:06:50.879Z,12.27
2023-04-18T14:09:18.153Z,12.28
2023-04-18T14:11:45.454Z,12.17
2023-04-18T14:14:12.236Z,12.22
2023-04-18T14:16:39.041Z,12.22
2023-04-18T14:19:05.859Z,12.25
2023-04-18T14:21:32.643Z,12.11
2023-04-18T14:23:59.432Z,12.10
2023-04-18T14:26:26.208Z,12.05
2023-04-18T14:28:53.103Z,12.01
2023-04-18T14:31:20.187Z,11.88
2023-04-18T14:33:47.007Z,11.83
2023-04-18T14:36:17.077Z,11.84
2023-04-18T14:38:47.926Z,11.75
2023-04-18T14:41:14.928Z,11.80
2023-04-18T14:43:41.740Z,11.83
2023-04-18T14:46:16.838Z,11.82
2023-04-18T14:48:47.481Z,11.85
2023-04-18T14:51:17.682Z,11.88
2023-04-18T14:53:44.973Z,11.86
2023-04-18T14:56:12.000Z,11.88
2023-04-18T14:58:38.759Z,11.87
2023-04-18T15:01:05.636Z,11.88
2023-04-18T15:03:32.673Z,11.92
2023-04-18T15:05:59.763Z,11.95
2023-04-18T15:08:26.571Z,11.95
2023-04-18T15:10:54.272Z,11.95
2023-04-18T15:13:21.209Z,11.95
2023-04-18T15:15:55.350Z,11.96
2023-04-18T15:18:22.417Z,12.02
2023-04-18T15:20:49.297Z,12.07
2023-04-18T15:23:16.540Z,12.05
2023-04-18T15:25:44.629Z,12.09
2023-04-18T15:28:13.321Z,12.16
2023-04-18T15:30:40.290Z,12.18
2023-04-18T15:33:08.230Z,12.15
2023-04-18T15:35:36.146Z,12.14
2023-04-18T15:38:03.044Z,12.11
2023-04-18T15:40:30.149Z,12.10
2023-04-18T15:42:57.955Z,12.03
2023-04-18T15:45:24.843Z,11.92
2023-04-18T15:47:51.825Z,11.88
2023-04-18T15:50:18.717Z,11.85
2023-04-18T15:52:45.548Z,11.73
2023-04-18T15:55:13.544Z,11.64
2023-04-18T15:57:41.794Z,11.59
2023-04-18T16:00:16.384Z,11.59
2023-04-18T16:02:47.132Z,11.58
2023-04-18T16:05:14.103Z,11.53
2023-04-18T16:07:42.437Z,11.51
2023-04-18T16:10:12.977Z,11.57
2023-04-18T16:12:39.992Z,11.65
2023-04-18T16:15:08.818Z,11.61
2023-04-18T16:17:36.713Z,11.65
2023-04-18T16:20:08.589Z,11.71
2023-04-18T16:22:36.351Z,11.85
2023-04-18T16:25:04.242Z,11.82
2023-04-18T16:27:31.026Z,11.89
2023-04-18T16:29:57.949Z,11.81
2023-04-18T16:32:25.251Z,11.70
2023-04-18T16:34:52.194Z,11.56
2023-04-18T16:37:19.098Z,11.39
2023-04-18T16:39:46.282Z,11.25
2023-04-18T16:42:15.865Z,11.08
2023-04-18T16:44:42.892Z,10.92
2023-04-18T16:47:09.843Z,10.87
2023-04-18T16:49:37.663Z,10.73
2023-04-18T16:52:04.618Z,10.65
2023-04-18T16:54:31.584Z,10.58
2023-04-18T16:56:58.516Z,10.49
2023-04-18T16:59:25.369Z,10.38
2023-04-18T17:01:52.491Z,10.33
2023-04-18T17:04:19.334Z,10.29
2023-04-18T17:06:46.811Z,10.31
2023-04-18T17:09:14.948Z,10.22
2023-04-18T17:11:41.958Z,10.12
2023-04-18T17:14:09.081Z,10.09
2023-04-18T17:16:38.749Z,10.04
2023-04-18T17:19:05.782Z,9.97
2023-04-18T17:21:33.963Z,9.95
2023-04-18T17:24:03.876Z,9.87
2023-04-18T17:26:31.159Z,9.80
2023-04-18T17:28:58.066Z,9.79
2023-04-18T17:31:24.929Z,9.80
2023-04-18T17:33:51.797Z,9.77
2023-04-18T17:36:18.654Z,9.70
2023-04-18T17:38:49.049Z,9.67
2023-04-18T17:41:20.328Z,9.59
2023-04-18T17:43:48.206Z,9.65
2023-04-18T17:46:15.101Z,9.55
2023-04-18T17:48:42.018Z,9.46
2023-04-18T17:51:08.815Z,9.43
2023-04-18T17:53:35.641Z,9.38
2023-04-18T17:56:03.901Z,9.38
2023-04-18T17:58:30.817Z,9.34
2023-04-18T18:00:57.729Z,9.22
2023-04-18T18:03:24.761Z,9.19
2023-04-18T18:05:52.037Z,9.15
2023-04-18T18:08:19.308Z,9.03
2023-04-18T18:10:47.338Z,8.96
2023-04-18T18:13:14.117Z,8.92
2023-04-18T18:15:40.918Z,8.87
2023-04-18T18:18:07.842Z,8.89
2023-04-18T18:20:34.779Z,8.86
2023-04-18T18:23:02.067Z,8.79
2023-04-18T18:25:29.318Z,8.80
2023-04-18T18:27:56.171Z,8.76
2023-04-18T18:30:23.001Z,8.68
2023-04-18T18:32:49.840Z,8.71
2023-04-18T18:35:16.831Z,8.64
2023-04-18T18:37:43.662Z,8.53
2023-04-18T18:40:11.015Z,8.50
2023-04-18T18:42:37.880Z,8.44
2023-04-18T18:45:05.393Z,8.33
2023-04-18T18:47:32.375Z,8.28
2023-04-18T18:49:59.160Z,8.21
2023-04-18T18:52:28.260Z,8.15
2023-04-18T18:54:55.510Z,8.11
2023-04-18T18:57:22.667Z,8.09
2023-04-18T18:59:53.836Z,8.06
2023-04-18T19:02:22.134Z,7.99
2023-04-18T19:04:49.255Z,8.00
2023-04-18T19:07:16.177Z,7.87
2023-04-18T19:09:43.383Z,7.84
2023-04-18T19:12:10.232Z,7.77
2023-04-18T19:14:37.061Z,7.63
2023-04-18T19:17:05.076Z,7.64
2023-04-18T19:19:31.909Z,7.58
2023-04-18T19:22:01.261Z,7.49
2023-04-18T19:24:28.056Z,7.41
2023-04-18T19:26:54.883Z,7.35
2023-04-18T19:29:22.426Z,7.30
2023-04-18T19:31:49.282Z,7.33
2023-04-18T19:34:19.019Z,7.24
2023-04-18T19:36:46.038Z,7.17
2023-04-18T19:39:13.116Z,7.14
2023-04-18T19:41:41.716Z,7.09
2023-04-18T19:44:08.462Z,7.07
2023-04-18T19:46:35.466Z,6.99
2023-04-18T19:49:02.438Z,6.91
2023-04-18T19:51:29.296Z,6.99
2023-04-18T19:53:56.209Z,7.01
2023-04-18T19:56:23.239Z,6.93
2023-04-18T19:58:50.056Z,6.84
2023-04-18T20:01:19.345Z,6.77
2023-04-18T20:03:47.326Z,6.79
2023-04-18T20:06:14.407Z,6.74
2023-04-18T20:08:45.891Z,6.77
2023-04-18T20:11:16.360Z,6.74
2023-04-18T20:13:43.255Z,6.63
2023-04-18T20:16:11.162Z,6.53
2023-04-18T20:18:39.557Z,6.46
2023-04-18T20:21:07.919Z,6.48
2023-04-18T20:23:35.667Z,6.41
2023-04-18T20:26:03.729Z,6.46
2023-04-18T20:28:31.529Z,6.45
2023-04-18T20:30:58.369Z,6.32
2023-04-18T20:33:25.298Z,6.32
2023-04-18T20:35:53.813Z,6.31
2023-04-18T20:38:25.809Z,6.34
2023-04-18T20:40:54.366Z,6.11
2023-04-18T20:43:21.577Z,6.11
2023-04-18T20:45:51.240Z,6.03
2023-04-18T20:48:18.331Z,6.03
2023-04-18T20:50:51.134Z,5.96
2023-04-18T20:53:21.821Z,5.96
2023-04-18T20:55:49.311Z,5.93
2023-04-18T20:58:16.354Z,5.97
2023-04-18T21:00:44.681Z,5.89
2023-04-18T21:03:15.673Z,5.88
2023-04-18T21:05:44.326Z,5.82
2023-04-18T21:08:11.619Z,5.75
2023-04-18T21:10:38.497Z,5.65
2023-04-18T21:13:05.756Z,5.66
2023-04-18T21:15:32.547Z,5.63
2023-04-18T21:17:59.453Z,5.51
2023-04-18T21:20:26.403Z,5.48
2023-04-18T21:22:53.195Z,5.43
2023-04-18T21:25:21.460Z,5.40
2023-04-18T21:27:50.746Z,5.40
2023-04-18T21:30:17.799Z,5.36
2023-04-18T21:32:46.087Z,5.36
2023-04-18T21:35:13.104Z,5.36
2023-04-18T21:37:39.920Z,5.27
2023-04-18T21:40:07.550Z,5.28
2023-04-18T21:42:35.795Z,5.28
2023-04-18T21:45:03.054Z,5.24
2023-04-18T21:47:30.111Z,5.22
2023-04-18T21:49:56.955Z,5.16
2023-04-18T21:52:23.814Z,5.11
2023-04-18T21:54:50.791Z,5.13
2023-04-18T21:57:17.588Z,5.15
2023-04-18T21:59:44.429Z,5.15
2023-04-18T22:02:11.525Z,5.28
2023-04-18T22:04:42.926Z,5.29
2023-04-18T22:07:10.243Z,5.31
2023-04-18T22:09:37.308Z,5.37
2023-04-18T22:12:04.534Z,5.32
2023-04-18T22:14:34.270Z,5.28
2023-04-18T22:17:03.360Z,5.22
2023-04-18T22:19:31.521Z,5.22
2023-04-18T22:21:58.595Z,5.11
2023-04-18T22:24:26.202Z,5.07
2023-04-18T22:26:53.775Z,5.00
2023-04-18T22:29:20.573Z,4.91
2023-04-18T22:31:47.381Z,4.86
2023-04-18T22:34:14.507Z,4.78
2023-04-18T22:36:42.914Z,4.86
2023-04-18T22:39:09.895Z,4.78
2023-04-18T22:41:36.701Z,4.75
2023-04-18T22:44:06.153Z,4.79
2023-04-18T22:46:33.139Z,4.72
2023-04-18T22:48:59.977Z,4.74
2023-04-18T22:51:28.837Z,4.73
2023-04-18T22:53:56.547Z,4.75
2023-04-18T22:56:23.530Z,4.75
2023-04-18T22:58:50.316Z,4.71
2023-04-18T23:01:17.234Z,4.67
2023-04-18T23:03:44.504Z,4.63
2023-04-18T23:06:11.524Z,4.64
2023-04-18T23:08:38.374Z,4.67
2023-04-18T23:11:05.306Z,4.67
2023-04-18T23:13:32.132Z,4.65
2023-04-18T23:15:59.106Z,4.66
2023-04-18T23:18:29.032Z,4.60
2023-04-18T23:20:55.898Z,4.59
2023-04-18T23:23:22.666Z,4.60
2023-04-18T23:25:49.418Z,4.57
2023-04-18T23:28:17.250Z,4.62
2023-04-18T23:30:44.191Z,4.64
2023-04-18T23:33:11.132Z,4.60
2023-04-18T23:35:37.967Z,4.62
2023-04-18T23:38:04.801Z,4.62
2023-04-18T23:40:31.631Z,4.61
2023-04-18T23:42:59.174Z,4.58
2023-04-18T23:45:29.029Z,4.59
2023-04-18T23:47:56.020Z,4.59
2023-04-18T23:50:22.845Z,4.56
2023-04-18T23:52:49.607Z,4.59
2023-04-18T23:55:16.966Z,4.53
2023-04-18T23:57:44.558Z,4.51
